createdAt,value
2023-08-10T00:00:10.002Z,99316.40
2023-08-10T00:02:57.775Z,99320.60
2023-08-10T00:05:25.593Z,99316.20
2023-08-10T00:07:53.295Z,99314.60
2023-08-10T00:10:21.032Z,99313.40
2023-08-10T00:12:48.773Z,99315.40
2023-08-10T00:15:16.560Z,99316.80
2023-08-10T00:17:44.407Z,99319.60
2023-08-10T00:20:12.426Z,99317.80
2023-08-10T00:22:40.157Z,99326.20
2023-08-10T00:25:08.913Z,99321.40
2023-08-10T00:27:39.722Z,99319.00
2023-08-10T00:30:09.394Z,99316.40
2023-08-10T00:32:38.219Z,99320.00
2023-08-10T00:35:06.934Z,99324.80
2023-08-10T00:37:34.693Z,99323.40
2023-08-10T00:40:03.457Z,99325.20
2023-08-10T00:42:32.191Z,99325.80
2023-08-10T00:44:59.935Z,99325.60
2023-08-10T00:47:28.840Z,99326.00
2023-08-10T00:49:56.912Z,99330.20
2023-08-10T00:52:24.803Z,99334.00
2023-08-10T00:54:52.760Z,99330.40
2023-08-10T00:57:21.439Z,99336.40
2023-08-10T00:59:49.467Z,99334.40
2023-08-10T01:02:17.604Z,99337.20
2023-08-10T01:04:45.497Z,99333.20
2023-08-10T01:07:26.704Z,99337.00
2023-08-10T01:10:07.377Z,99335.80
2023-08-10T01:12:49.620Z,99333.40
2023-08-10T01:15:55.917Z,99332.40
2023-08-10T01:18:28.505Z,99333.80
2023-08-10T01:21:00.638Z,99339.20
2023-08-10T01:23:36.803Z,99341.00
2023-08-10T01:26:06.405Z,99344.80
2023-08-10T01:28:35.484Z,99345.80
2023-08-10T01:31:03.657Z,99347.20
2023-08-10T01:33:32.129Z,99350.60
2023-08-10T01:35:59.900Z,99349.40
2023-08-10T01:38:27.687Z,99350.20
2023-08-10T01:40:55.496Z,99351.20
2023-08-10T01:43:23.264Z,99355.00
2023-08-10T01:45:56.058Z,99353.80
2023-08-10T01:48:33.433Z,99356.40
2023-08-10T01:51:07.872Z,99355.60
2023-08-10T01:53:38.356Z,99355.80
2023-08-10T01:56:06.198Z,99351.20
2023-08-10T01:58:34.180Z,99354.20
2023-08-10T02:01:02.676Z,99358.00
2023-08-10T02:03:30.543Z,99359.40
2023-08-10T02:05:58.414Z,99357.40
2023-08-10T02:08:26.241Z,99360.40
2023-08-10T02:10:54.016Z,99362.80
2023-08-10T02:13:21.814Z,99359.40
2023-08-10T02:15:51.402Z,99362.00
2023-08-10T02:18:19.931Z,99361.00
2023-08-10T02:20:47.965Z,99366.80
2023-08-10T02:23:15.701Z,99365.60
2023-08-10T02:25:43.450Z,99362.60
2023-08-10T02:28:11.290Z,99359.60
2023-08-10T02:30:39.767Z,99365.20
2023-08-10T02:33:07.526Z,99358.80
2023-08-10T02:35:35.291Z,99359.00
2023-08-10T02:38:03.171Z,99361.60
2023-08-10T02:40:31.022Z,99361.60
2023-08-10T02:42:58.770Z,99363.40
2023-08-10T02:45:26.536Z,99359.80
2023-08-10T02:47:54.278Z,99360.60
2023-08-10T02:50:22.169Z,99362.00
2023-08-10T02:52:50.463Z,99357.80
2023-08-10T02:55:18.631Z,99362.00
2023-08-10T02:57:46.378Z,99364.20
2023-08-10T03:00:14.842Z,99364.60
2023-08-10T03:02:42.795Z,99367.60
2023-08-10T03:05:12.365Z,99375.20
2023-08-10T03:07:40.128Z,99375.20
2023-08-10T03:10:10.696Z,99379.20
2023-08-10T03:12:39.515Z,99374.00
2023-08-10T03:15:10.569Z,99381.80
2023-08-10T03:17:39.526Z,99378.60
2023-08-10T03:20:18.152Z,99379.60
2023-08-10T03:22:46.585Z,99379.20
2023-08-10T03:25:15.925Z,99380.80
2023-08-10T03:27:43.804Z,99377.80
2023-08-10T03:30:12.093Z,99380.00
2023-08-10T03:32:39.894Z,99384.60
2023-08-10T03:35:08.328Z,99388.80
2023-08-10T03:37:36.150Z,99382.80
2023-08-10T03:40:05.022Z,99383.20
2023-08-10T03:42:32.728Z,99383.00
2023-08-10T03:45:00.765Z,99385.20
2023-08-10T03:47:28.725Z,99393.20
2023-08-10T03:49:56.610Z,99397.60
2023-08-10T03:52:24.829Z,99392.60
2023-08-10T03:54:52.751Z,99402.60
2023-08-10T03:57:20.535Z,99399.40
2023-08-10T03:59:48.243Z,99398.60
2023-08-10T04:02:16.012Z,99399.20
2023-08-10T04:04:43.768Z,99398.40
2023-08-10T04:07:11.589Z,99401.20
2023-08-10T04:09:40.974Z,99402.40
2023-08-10T04:12:08.842Z,99406.80
2023-08-10T04:14:36.598Z,99399.80
2023-08-10T04:17:04.567Z,99406.60
2023-08-10T04:19:32.438Z,99405.20
2023-08-10T04:22:00.286Z,99406.40
2023-08-10T04:24:27.996Z,99409.60
2023-08-10T04:26:55.771Z,99414.40
2023-08-10T04:29:27.759Z,99415.80
2023-08-10T04:31:55.970Z,99413.20
2023-08-10T04:34:23.697Z,99405.40
2023-08-10T04:36:51.534Z,99409.60
2023-08-10T04:39:19.296Z,99413.00
2023-08-10T04:41:47.048Z,99419.20
2023-08-10T04:44:14.815Z,99425.00
2023-08-10T04:46:42.579Z,99424.40
2023-08-10T04:49:10.366Z,99423.00
2023-08-10T04:51:38.251Z,99425.60
2023-08-10T04:54:06.102Z,99424.60
2023-08-10T04:56:33.817Z,99427.60
2023-08-10T04:59:01.537Z,99437.20
2023-08-10T05:01:30.293Z,99432.00
2023-08-10T05:03:58.170Z,99439.40
2023-08-10T05:06:25.969Z,99444.40
2023-08-10T05:08:53.767Z,99448.20
2023-08-10T05:11:21.455Z,99457.40
2023-08-10T05:13:49.202Z,99463.60
2023-08-10T05:16:16.977Z,99464.60
2023-08-10T05:18:44.766Z,99461.00
2023-08-10T05:21:12.526Z,99473.80
2023-08-10T05:23:40.301Z,99469.00
2023-08-10T05:26:09.492Z,99479.00
2023-08-10T05:28:37.438Z,99486.40
2023-08-10T05:31:05.231Z,99474.40
2023-08-10T05:33:33.149Z,99478.80
2023-08-10T05:36:00.925Z,99478.20
2023-08-10T05:38:28.792Z,99481.00
2023-08-10T05:40:57.446Z,99484.60
2023-08-10T05:43:25.321Z,99487.80
2023-08-10T05:45:53.141Z,99488.40
2023-08-10T05:48:20.909Z,99493.20
2023-08-10T05:50:48.748Z,99494.00
2023-08-10T05:53:16.713Z,99491.40
2023-08-10T05:55:44.538Z,99492.60
2023-08-10T05:58:12.280Z,99493.20
2023-08-10T06:00:40.923Z,99493.40
2023-08-10T06:03:09.458Z,99496.60
2023-08-10T06:05:37.446Z,99496.00
2023-08-10T06:08:08.579Z,99498.60
2023-08-10T06:10:36.982Z,99492.40
2023-08-10T06:13:04.990Z,99494.60
2023-08-10T06:15:32.802Z,99495.40
2023-08-10T06:18:00.679Z,99495.60
2023-08-10T06:20:28.671Z,99497.20
2023-08-10T06:22:56.496Z,99506.60
2023-08-10T06:25:25.738Z,99508.00
2023-08-10T06:27:54.534Z,99507.60
2023-08-10T06:30:22.449Z,99498.80
2023-08-10T06:32:50.282Z,99492.60
2023-08-10T06:35:21.564Z,99498.80
2023-08-10T06:37:51.278Z,99499.60
2023-08-10T06:40:21.334Z,99503.60
2023-08-10T06:42:49.368Z,99504.60
2023-08-10T06:45:17.203Z,99505.60
2023-08-10T06:47:45.073Z,99502.00
2023-08-10T06:50:13.548Z,99505.00
2023-08-10T06:52:43.071Z,99510.00
2023-08-10T06:55:13.055Z,99509.40
2023-08-10T06:57:42.085Z,99507.40
2023-08-10T07:02:45.861Z,99521.60
2023-08-10T07:05:14.457Z,99517.60
2023-08-10T07:07:42.722Z,99518.20
2023-08-10T07:10:11.049Z,99520.00
2023-08-10T07:12:38.829Z,99522.00
2023-08-10T07:15:08.810Z,99522.00
2023-08-10T07:17:37.095Z,99526.40
2023-08-10T07:20:06.834Z,99523.20
2023-08-10T07:22:39.749Z,99520.40
2023-08-10T07:25:08.231Z,99524.60
2023-08-10T07:27:36.569Z,99519.60
2023-08-10T07:30:05.386Z,99519.00
2023-08-10T07:32:33.322Z,99522.00
2023-08-10T07:35:01.138Z,99521.00
2023-08-10T07:37:28.882Z,99520.60
2023-08-10T07:39:56.582Z,99527.00
2023-08-10T07:42:24.417Z,99525.40
2023-08-10T07:44:52.200Z,99528.00
2023-08-10T07:47:19.992Z,99522.60
2023-08-10T07:49:47.726Z,99525.60
2023-08-10T07:52:15.471Z,99525.60
2023-08-10T07:54:43.306Z,99524.40
2023-08-10T07:57:11.085Z,99519.20
2023-08-10T07:59:38.824Z,99520.20
2023-08-10T08:02:07.605Z,99515.00
2023-08-10T08:04:35.722Z,99515.60
2023-08-10T08:07:03.811Z,99514.00
2023-08-10T08:09:31.572Z,99515.80
2023-08-10T08:11:59.346Z,99520.40
2023-08-10T08:14:27.151Z,99518.00
2023-08-10T08:16:54.993Z,99512.80
2023-08-10T08:19:22.777Z,99507.20
2023-08-10T08:21:50.540Z,99512.20
2023-08-10T08:24:18.461Z,99506.40
2023-08-10T08:26:46.297Z,99504.20
2023-08-10T08:29:14.044Z,99502.60
2023-08-10T08:31:41.900Z,99501.20
2023-08-10T08:34:09.894Z,99498.40
2023-08-10T08:36:37.690Z,99499.60
2023-08-10T08:39:05.673Z,99497.00
2023-08-10T08:41:39.661Z,99493.80
2023-08-10T08:44:10.068Z,99492.40
2023-08-10T08:46:43.679Z,99487.60
2023-08-10T08:49:11.560Z,99486.00
2023-08-10T08:51:40.175Z,99489.00
2023-08-10T08:54:07.976Z,99492.20
2023-08-10T08:56:35.691Z,99494.00
2023-08-10T08:59:03.569Z,99488.20
2023-08-10T09:01:32.074Z,99484.20
2023-08-10T09:04:00.534Z,99487.60
2023-08-10T09:06:28.680Z,99487.00
2023-08-10T09:08:56.432Z,99487.00
2023-08-10T09:11:24.615Z,99493.80
2023-08-10T09:14:21.578Z,99498.20
2023-08-10T09:16:49.402Z,99502.60
2023-08-10T09:19:18.280Z,99502.00
2023-08-10T09:21:46.671Z,99507.40
2023-08-10T09:24:14.401Z,99505.40
2023-08-10T09:26:42.293Z,99512.80
2023-08-10T09:29:10.140Z,99511.20
2023-08-10T09:31:44.162Z,99513.60
2023-08-10T09:34:15.004Z,99509.40
2023-08-10T09:36:54.895Z,99510.40
2023-08-10T09:39:22.986Z,99502.60
2023-08-10T09:41:57.576Z,99501.80
2023-08-10T09:44:25.788Z,99502.80
2023-08-10T09:46:59.299Z,99502.40
2023-08-10T09:49:27.746Z,99492.80
2023-08-10T09:52:00.157Z,99494.00
2023-08-10T09:54:29.684Z,99490.00
2023-08-10T09:56:58.831Z,99487.00
2023-08-10T09:59:27.114Z,99494.40
2023-08-10T10:01:56.489Z,99488.40
2023-08-10T10:04:27.984Z,99493.00
2023-08-10T10:06:59.024Z,99496.20
2023-08-10T10:09:31.445Z,99492.80
2023-08-10T10:12:01.644Z,99491.80
2023-08-10T10:14:29.887Z,99491.80
2023-08-10T10:16:58.363Z,99492.40
2023-08-10T10:19:27.173Z,99492.80
2023-08-10T10:21:54.920Z,99487.60
2023-08-10T10:24:22.648Z,99482.60
2023-08-10T10:27:11.581Z,99483.80
2023-08-10T10:29:47.236Z,99474.80
2023-08-10T10:32:17.961Z,99473.40
2023-08-10T10:34:47.048Z,99478.00
2023-08-10T10:37:16.251Z,99479.80
2023-08-10T10:39:51.456Z,99470.60
2023-08-10T10:42:21.510Z,99463.20
2023-08-10T10:45:09.799Z,99466.40
2023-08-10T10:47:51.287Z,99471.40
2023-08-10T10:50:29.960Z,99467.20
2023-08-10T10:53:03.523Z,99465.80
2023-08-10T10:55:47.520Z,99466.00
2023-08-10T10:58:17.055Z,99469.60
2023-08-10T11:00:49.083Z,99465.60
2023-08-10T11:03:20.816Z,99469.80
2023-08-10T11:05:49.087Z,99463.40
2023-08-10T11:08:17.272Z,99458.40
2023-08-10T11:10:45.820Z,99458.80
2023-08-10T11:13:14.275Z,99457.60
2023-08-10T11:15:48.758Z,99461.80
2023-08-10T11:18:16.698Z,99467.40
2023-08-10T11:20:51.877Z,99461.20
2023-08-10T11:23:19.695Z,99465.40
2023-08-10T11:25:51.473Z,99465.40
2023-08-10T11:28:22.617Z,99465.00
2023-08-10T11:30:50.807Z,99453.80
2023-08-10T11:33:20.356Z,99466.40
2023-08-10T11:35:53.994Z,99461.20
2023-08-10T11:38:22.479Z,99460.40
2023-08-10T11:40:51.272Z,99459.00
2023-08-10T11:43:22.233Z,99460.80
2023-08-10T11:45:50.157Z,99457.60
2023-08-10T11:48:20.545Z,99454.60
2023-08-10T11:50:59.276Z,99454.20
2023-08-10T11:53:42.946Z,99455.80
2023-08-10T11:56:10.861Z,99454.40
2023-08-10T11:58:41.244Z,99451.80
2023-08-10T12:01:10.587Z,99449.40
2023-08-10T12:03:38.467Z,99450.00
2023-08-10T12:06:07.384Z,99448.40
2023-08-10T12:08:40.186Z,99448.60
2023-08-10T12:11:14.072Z,99445.60
2023-08-10T12:13:47.269Z,99443.00
2023-08-10T12:16:19.221Z,99444.80
2023-08-10T12:18:48.088Z,99444.60
2023-08-10T12:21:16.107Z,99446.00
2023-08-10T12:23:45.309Z,99441.20
2023-08-10T12:26:14.278Z,99438.60
2023-08-10T12:28:42.340Z,99440.20
2023-08-10T12:31:10.384Z,99438.40
2023-08-10T12:33:42.141Z,99438.20
2023-08-10T12:36:10.302Z,99434.20
2023-08-10T12:38:40.354Z,99425.60
2023-08-10T12:41:09.192Z,99424.60
2023-08-10T12:43:40.214Z,99424.60
2023-08-10T12:46:08.340Z,99426.60
2023-08-10T12:48:36.229Z,99425.80
2023-08-10T12:51:06.701Z,99423.80
2023-08-10T12:53:34.769Z,99427.00
2023-08-10T12:56:03.444Z,99424.00
2023-08-10T12:58:31.208Z,99424.40
2023-08-10T13:00:58.931Z,99420.00
2023-08-10T13:03:27.059Z,99416.60
2023-08-10T13:05:54.878Z,99411.00
2023-08-10T13:08:23.430Z,99419.40
2023-08-10T13:10:51.467Z,99415.20
2023-08-10T13:13:19.759Z,99418.40
2023-08-10T13:15:47.580Z,99421.60
2023-08-10T13:18:15.348Z,99417.40
2023-08-10T13:20:43.277Z,99423.00
2023-08-10T13:23:11.079Z,99420.40
2023-08-10T13:25:39.036Z,99422.40
2023-08-10T13:28:06.876Z,99419.60
2023-08-10T13:30:35.625Z,99418.40
2023-08-10T13:33:03.609Z,99419.00
2023-08-10T13:35:31.351Z,99420.80
2023-08-10T13:37:59.069Z,99410.60
2023-08-10T13:40:27.459Z,99412.60
2023-08-10T13:42:55.216Z,99409.00
2023-08-10T13:45:23.156Z,99415.40
2023-08-10T13:47:53.142Z,99415.00
2023-08-10T13:50:20.850Z,99420.00
2023-08-10T13:52:48.841Z,99417.00
2023-08-10T13:55:16.616Z,99419.60
2023-08-10T13:57:44.623Z,99425.80
2023-08-10T14:00:15.268Z,99421.20
2023-08-10T14:02:43.592Z,99421.00
2023-08-10T14:05:11.883Z,99426.20
2023-08-10T14:07:40.662Z,99422.00
2023-08-10T14:10:12.284Z,99419.60
2023-08-10T14:12:39.946Z,99425.60
2023-08-10T14:15:08.280Z,99424.40
2023-08-10T14:17:36.037Z,99425.20
2023-08-10T14:20:04.137Z,99425.80
2023-08-10T14:22:32.062Z,99425.80
2023-08-10T14:24:59.783Z,99425.20
2023-08-10T14:27:27.506Z,99428.60
2023-08-10T14:29:55.335Z,99432.80
2023-08-10T14:32:25.611Z,99431.80
2023-08-10T14:34:53.854Z,99430.40
2023-08-10T14:37:21.851Z,99433.40
2023-08-10T14:39:49.575Z,99431.40
2023-08-10T14:42:17.318Z,99432.60
2023-08-10T14:44:45.059Z,99424.80
2023-08-10T14:47:13.108Z,99425.40
2023-08-10T14:49:40.946Z,99426.60
2023-08-10T14:52:08.702Z,99420.80
2023-08-10T14:54:36.782Z,99419.00
2023-08-10T14:57:04.613Z,99409.80
2023-08-10T14:59:32.515Z,99418.60
2023-08-10T15:02:00.306Z,99415.60
2023-08-10T15:04:28.157Z,99408.20
2023-08-10T15:06:55.984Z,99403.80
2023-08-10T15:09:23.738Z,99406.40
2023-08-10T15:11:51.520Z,99402.40
2023-08-10T15:14:19.221Z,99404.40
2023-08-10T15:16:46.961Z,99399.80
2023-08-10T15:19:14.741Z,99395.40
2023-08-10T15:21:42.761Z,99389.00
2023-08-10T15:24:11.067Z,99391.80
2023-08-10T15:26:38.835Z,99396.20
2023-08-10T15:29:07.695Z,99393.20
2023-08-10T15:31:36.130Z,99392.80
2023-08-10T15:34:03.965Z,99386.20
2023-08-10T15:36:31.797Z,99387.00
2023-08-10T15:38:59.481Z,99389.00
2023-08-10T15:41:27.190Z,99391.60
2023-08-10T15:43:54.963Z,99393.20
2023-08-10T15:46:23.731Z,99398.60
2023-08-10T15:48:51.480Z,99399.20
2023-08-10T15:51:19.342Z,99405.40
2023-08-10T15:53:47.348Z,99402.60
2023-08-10T15:56:15.078Z,99404.40
2023-08-10T15:58:42.842Z,99405.60
2023-08-10T16:01:10.610Z,99404.40
2023-08-10T16:03:38.945Z,99407.00
2023-08-10T16:06:06.738Z,99417.40
2023-08-10T16:08:34.654Z,99420.20
2023-08-10T16:11:02.386Z,99426.80
2023-08-10T16:13:30.585Z,99424.20
2023-08-10T16:15:58.438Z,99427.00
2023-08-10T16:18:26.184Z,99430.00
2023-08-10T16:20:53.909Z,99431.00
2023-08-10T16:23:21.683Z,99431.20
2023-08-10T16:25:52.118Z,99432.40
2023-08-10T16:28:20.419Z,99427.60
2023-08-10T16:30:48.288Z,99429.60
2023-08-10T16:33:16.142Z,99430.20
2023-08-10T16:35:43.856Z,99424.40
2023-08-10T16:38:11.590Z,99425.60
2023-08-10T16:40:39.384Z,99425.80
2023-08-10T16:43:07.155Z,99425.80
2023-08-10T16:45:34.902Z,99426.80
2023-08-10T16:48:02.744Z,99431.00
2023-08-10T16:50:30.705Z,99434.00
2023-08-10T16:52:58.976Z,99433.80
2023-08-10T16:55:26.998Z,99432.60
2023-08-10T16:57:55.631Z,99436.60
2023-08-10T17:00:25.577Z,99433.40
2023-08-10T17:02:53.911Z,99436.00
2023-08-10T17:05:21.960Z,99438.00
2023-08-10T17:07:49.748Z,99439.00
2023-08-10T17:10:17.814Z,99445.60
2023-08-10T17:12:45.919Z,99445.60
2023-08-10T17:15:14.269Z,99449.80
2023-08-10T17:17:42.252Z,99452.80
2023-08-10T17:20:11.384Z,99454.00
2023-08-10T17:22:39.421Z,99454.40
2023-08-10T17:25:09.427Z,99457.40
2023-08-10T17:27:37.226Z,99458.00
2023-08-10T17:30:06.637Z,99464.80
2023-08-10T17:32:34.623Z,99465.40
2023-08-10T17:35:02.582Z,99472.20
2023-08-10T17:37:30.780Z,99475.60
2023-08-10T17:39:58.777Z,99475.60
2023-08-10T17:42:26.599Z,99482.00
2023-08-10T17:44:56.271Z,99486.00
2023-08-10T17:47:24.221Z,99491.40
2023-08-10T17:49:52.628Z,99490.80
2023-08-10T17:52:20.818Z,99492.80
2023-08-10T17:54:48.833Z,99498.40
2023-08-10T17:57:16.547Z,99497.40
2023-08-10T17:59:44.303Z,99498.60
2023-08-10T18:02:12.148Z,99502.40
2023-08-10T18:04:39.923Z,99504.00
2023-08-10T18:07:07.658Z,99510.00
2023-08-10T18:09:35.490Z,99509.60
2023-08-10T18:12:03.662Z,99503.40
2023-08-10T18:14:31.464Z,99507.40
2023-08-10T18:16:59.186Z,99513.00
2023-08-10T18:19:26.956Z,99511.20
2023-08-10T18:21:54.673Z,99517.00
2023-08-10T18:24:22.341Z,99520.60
2023-08-10T18:26:50.217Z,99523.40
2023-08-10T18:29:18.236Z,99523.80
2023-08-10T18:31:46.052Z,99519.20
2023-08-10T18:34:13.842Z,99524.00
2023-08-10T18:36:41.521Z,99524.80
2023-08-10T18:39:09.384Z,99529.80
2023-08-10T18:41:37.119Z,99530.40
2023-08-10T18:44:05.390Z,99528.20
2023-08-10T18:46:33.113Z,99530.40
2023-08-10T18:49:00.885Z,99532.80
2023-08-10T18:51:28.636Z,99539.80
2023-08-10T18:53:56.761Z,99537.40
2023-08-10T18:56:24.491Z,99539.60
2023-08-10T18:58:52.346Z,99545.80
2023-08-10T19:01:20.177Z,99553.00
2023-08-10T19:03:48.682Z,99552.00
2023-08-10T19:06:16.436Z,99551.80
2023-08-10T19:08:44.168Z,99554.80
2023-08-10T19:11:12.086Z,99552.40
2023-08-10T19:13:40.036Z,99562.80
2023-08-10T19:16:08.086Z,99550.80
2023-08-10T19:18:35.958Z,99559.60
2023-08-10T19:21:07.506Z,99558.20
2023-08-10T19:23:35.316Z,99558.60
2023-08-10T19:26:03.837Z,99559.00
2023-08-10T19:28:31.711Z,99560.00
2023-08-10T19:31:04.347Z,99564.80
2023-08-10T19:33:34.046Z,99562.00
2023-08-10T19:36:02.465Z,99566.60
2023-08-10T19:38:30.476Z,99566.60
2023-08-10T19:40:58.230Z,99567.60
2023-08-10T19:43:26.084Z,99566.40
2023-08-10T19:45:53.983Z,99567.80
2023-08-10T19:48:21.809Z,99570.20
2023-08-10T19:50:50.129Z,99573.00
2023-08-10T19:53:18.277Z,99571.60
2023-08-10T19:55:46.245Z,99577.60
2023-08-10T19:58:14.011Z,99575.00
2023-08-10T20:00:44.961Z,99572.60
2023-08-10T20:03:12.760Z,99577.00
2023-08-10T20:05:40.505Z,99572.00
2023-08-10T20:08:08.273Z,99576.40
2023-08-10T20:10:36.160Z,99578.40
2023-08-10T20:13:04.124Z,99579.40
2023-08-10T20:15:35.510Z,99582.00
2023-08-10T20:18:04.348Z,99577.00
2023-08-10T20:20:32.369Z,99578.80
2023-08-10T20:23:01.116Z,99578.60
2023-08-10T20:25:29.581Z,99584.20
2023-08-10T20:28:04.658Z,99580.00
2023-08-10T20:30:34.216Z,99579.80
2023-08-10T20:33:01.988Z,99580.40
2023-08-10T20:35:31.935Z,99579.00
2023-08-10T20:37:59.764Z,99580.20
2023-08-10T20:40:27.650Z,99580.20
2023-08-10T20:42:55.614Z,99578.40
2023-08-10T20:45:23.511Z,99579.60
2023-08-10T20:47:51.271Z,99578.00
2023-08-10T20:50:19.952Z,99581.00
2023-08-10T20:52:47.700Z,99582.40
2023-08-10T20:55:15.416Z,99583.60
2023-08-10T20:57:43.315Z,99580.80
2023-08-10T21:00:11.672Z,99578.80
2023-08-10T21:02:39.484Z,99575.00
2023-08-10T21:05:07.746Z,99572.00
2023-08-10T21:07:36.861Z,99581.20
2023-08-10T21:10:04.881Z,99577.00
2023-08-10T21:12:32.630Z,99578.60
2023-08-10T21:15:08.141Z,99576.00
2023-08-10T21:17:37.566Z,99575.00
2023-08-10T21:20:07.321Z,99575.00
2023-08-10T21:22:35.093Z,99574.20
2023-08-10T21:25:02.956Z,99573.60
2023-08-10T21:27:30.818Z,99576.20
2023-08-10T21:29:58.675Z,99575.00
2023-08-10T21:32:26.332Z,99575.80
2023-08-10T21:34:54.161Z,99573.40
2023-08-10T21:37:22.026Z,99575.60
2023-08-10T21:39:50.811Z,99574.20
2023-08-10T21:42:18.617Z,99572.80
2023-08-10T21:44:46.326Z,99569.20
2023-08-10T21:47:14.097Z,99570.60
2023-08-10T21:49:41.863Z,99573.60
2023-08-10T21:52:10.129Z,99570.40
2023-08-10T21:54:37.853Z,99573.60
2023-08-10T21:57:06.062Z,99569.20
2023-08-10T21:59:34.188Z,99568.00
2023-08-10T22:02:02.220Z,99569.40
2023-08-10T22:04:30.137Z,99572.00
2023-08-10T22:06:57.966Z,99572.00
2023-08-10T22:09:25.699Z,99577.40
2023-08-10T22:11:53.430Z,99577.40
2023-08-10T22:14:21.176Z,99579.80
2023-08-10T22:16:48.951Z,99577.20
2023-08-10T22:19:16.800Z,99578.00
2023-08-10T22:21:44.717Z,99578.60
2023-08-10T22:24:12.513Z,99573.80
2023-08-10T22:26:40.246Z,99576.20
2023-08-10T22:29:09.282Z,99579.20
2023-08-10T22:31:37.052Z,99578.60
2023-08-10T22:34:04.804Z,99579.00
2023-08-10T22:36:32.610Z,99577.00
2023-08-10T22:39:00.328Z,99573.80
2023-08-10T22:41:28.158Z,99577.60
2023-08-10T22:43:55.931Z,99579.20
2023-08-10T22:46:23.853Z,99579.20
2023-08-10T22:48:51.595Z,99583.00
2023-08-10T22:51:19.974Z,99580.80
2023-08-10T22:53:48.188Z,99579.20
2023-08-10T22:56:15.941Z,99578.20
2023-08-10T22:58:43.946Z,99580.80
2023-08-10T23:01:12.720Z,99578.40
2023-08-10T23:03:43.853Z,99579.00
2023-08-10T23:06:12.379Z,99573.20
2023-08-10T23:08:40.615Z,99574.80
2023-08-10T23:11:08.374Z,99572.00
2023-08-10T23:13:36.090Z,99569.60
2023-08-10T23:16:04.026Z,99572.20
2023-08-10T23:18:31.814Z,99569.80
2023-08-10T23:21:01.467Z,99568.40
2023-08-10T23:23:29.517Z,99568.80
2023-08-10T23:25:57.350Z,99568.40
2023-08-10T23:28:25.108Z,99568.60
2023-08-10T23:30:54.771Z,99566.60
2023-08-10T23:33:24.799Z,99571.00
2023-08-10T23:35:52.798Z,99567.20
2023-08-10T23:38:20.559Z,99566.80
2023-08-10T23:40:48.214Z,99564.40
2023-08-10T23:43:15.941Z,99563.00
2023-08-10T23:45:43.704Z,99562.60
2023-08-10T23:48:12.409Z,99561.40
2023-08-10T23:50:40.540Z,99557.00
2023-08-10T23:53:08.304Z,99556.80
2023-08-10T23:55:36.070Z,99555.20
2023-08-10T23:58:04.298Z,99554.60
